createdAt,value
2019-05-03T00:03:03.529Z,0
2019-05-03T00:08:08.392Z,0
2019-05-03T00:13:14.135Z,0
2019-05-03T00:18:19.634Z,0
2019-05-03T00:23:26.588Z,0
2019-05-03T00:28:33.979Z,0
2019-05-03T00:33:39.094Z,0
2019-05-03T00:38:45.772Z,0
2019-05-03T00:43:52.989Z,0
2019-05-03T00:48:58.117Z,0
2019-05-03T00:54:03.388Z,0
2019-05-03T00:59:08.781Z,0
2019-05-03T01:04:13.901Z,0
2019-05-03T01:09:19.625Z,0
2019-05-03T01:14:26.532Z,0
2019-05-03T01:19:33.567Z,0
2019-05-03T01:24:38.688Z,0
2019-05-03T01:29:44.085Z,0
2019-05-03T01:34:49.477Z,0
2019-05-03T01:39:56.569Z,0
2019-05-03T01:45:03.458Z,0
2019-05-03T01:50:08.022Z,0
2019-05-03T01:55:17.330Z,0
2019-05-03T02:00:23.762Z,0
2019-05-03T02:05:28.606Z,0
2019-05-03T02:10:35.942Z,0
2019-05-03T02:15:43.280Z,0
2019-05-03T02:20:48.127Z,0
2019-05-03T02:26:02.875Z,0
2019-05-03T02:31:08.346Z,0
2019-05-03T02:36:15.622Z,0
2019-05-03T02:41:23.733Z,0
2019-05-03T02:46:28.840Z,0
2019-05-03T02:51:37.764Z,0
2019-05-03T02:56:42.972Z,0
2019-05-03T03:01:50.417Z,0
2019-05-03T03:06:57.229Z,0
2019-05-03T03:12:02.624Z,0
2019-05-03T03:17:10.822Z,0
2019-05-03T03:22:17.865Z,0
2019-05-03T03:27:26.015Z,0
2019-05-03T03:32:31.744Z,0
2019-05-03T03:37:45.869Z,1
2019-05-03T03:42:51.332Z,1
2019-05-03T03:47:58.375Z,0
2019-05-03T03:53:06.500Z,1
2019-05-03T03:58:12.002Z,1
2019-05-03T04:03:27.518Z,1
2019-05-03T04:08:32.630Z,2
2019-05-03T04:13:41.004Z,2
2019-05-03T04:18:46.882Z,2
2019-05-03T04:23:55.466Z,3
2019-05-03T04:29:00.761Z,3
2019-05-03T04:34:06.754Z,3
2019-05-03T04:39:11.865Z,4
2019-05-03T04:44:26.843Z,5
2019-05-03T04:49:32.233Z,5
2019-05-03T04:54:40.215Z,5
2019-05-03T04:59:47.121Z,5
2019-05-03T05:04:55.296Z,6
2019-05-03T05:10:01.006Z,6
2019-05-03T05:15:06.865Z,9
2019-05-03T05:20:11.987Z,10
2019-05-03T05:25:19.083Z,9
2019-05-03T05:30:26.075Z,7
2019-05-03T05:35:30.907Z,7
2019-05-03T05:40:36.877Z,8
2019-05-03T05:45:41.982Z,9
2019-05-03T05:50:48.761Z,10
2019-05-03T05:55:56.083Z,11
2019-05-03T06:01:00.641Z,13
2019-05-03T06:06:06.944Z,16
2019-05-03T06:11:12.071Z,21
2019-05-03T06:16:18.953Z,21
2019-05-03T06:21:25.540Z,20
2019-05-03T06:26:30.656Z,13
2019-05-03T06:31:36.253Z,17
2019-05-03T06:36:41.925Z,18
2019-05-03T06:41:49.117Z,26
2019-05-03T06:46:56.389Z,22
2019-05-03T06:52:14.647Z,18
2019-05-03T06:57:31.558Z,21
2019-05-03T07:02:37.428Z,12
2019-05-03T07:07:44.415Z,13
2019-05-03T07:12:49.692Z,13
2019-05-03T07:17:56.566Z,10
2019-05-03T07:23:01.690Z,26
2019-05-03T07:28:08.879Z,27
2019-05-03T07:33:15.610Z,26
2019-05-03T07:38:20.739Z,22
2019-05-03T07:43:26.206Z,35
2019-05-03T07:48:31.334Z,26
2019-05-03T07:53:36.558Z,30
2019-05-03T07:58:41.126Z,136
2019-05-03T08:03:47.001Z,146
2019-05-03T08:08:54.402Z,51
2019-05-03T08:13:59.200Z,15
2019-05-03T08:19:05.561Z,18
2019-05-03T08:24:10.973Z,25
2019-05-03T08:29:21.058Z,45
2019-05-03T08:34:27.668Z,80
2019-05-03T08:39:35.375Z,66
2019-05-03T08:44:41.149Z,63
2019-05-03T08:49:46.679Z,10
2019-05-03T08:54:52.374Z,12
2019-05-03T08:59:59.934Z,15
2019-05-03T09:05:06.741Z,26
2019-05-03T09:10:17.817Z,64
2019-05-03T09:15:25.066Z,73
2019-05-03T09:20:32.804Z,81
2019-05-03T09:25:40.356Z,44
2019-05-03T09:30:46.658Z,66
2019-05-03T09:35:51.799Z,64
2019-05-03T09:40:59.747Z,69
2019-05-03T09:46:06.925Z,28
2019-05-03T09:51:14.475Z,63
2019-05-03T09:56:19.358Z,65
2019-05-03T10:01:26.682Z,62
2019-05-03T10:06:31.285Z,68
2019-05-03T10:11:37.023Z,74
2019-05-03T10:16:44.752Z,70
2019-05-03T10:21:49.807Z,67
2019-05-03T10:26:56.997Z,65
2019-05-03T10:32:02.706Z,65
2019-05-03T10:37:08.138Z,55
2019-05-03T10:42:13.311Z,57
2019-05-03T10:47:18.459Z,61
2019-05-03T10:52:26.205Z,64
2019-05-03T10:57:31.088Z,56
2019-05-03T11:02:37.964Z,54
2019-05-03T11:07:45.099Z,29
2019-05-03T11:12:50.720Z,34
2019-05-03T11:17:56.509Z,25
2019-05-03T11:23:01.684Z,22
2019-05-03T11:28:09.974Z,10
2019-05-03T11:33:17.066Z,13
2019-05-03T11:38:22.270Z,21
2019-05-03T11:43:29.324Z,57
2019-05-03T11:48:36.420Z,54
2019-05-03T11:53:41.304Z,55
2019-05-03T11:58:49.147Z,31
2019-05-03T12:03:56.678Z,22
2019-05-03T12:09:01.834Z,29
2019-05-03T12:14:10.143Z,21
2019-05-03T12:19:32.136Z,12
2019-05-03T12:24:46.631Z,19
2019-05-03T12:29:54.360Z,30
2019-05-03T12:34:59.804Z,60
2019-05-03T12:40:07.059Z,58
2019-05-03T12:45:12.221Z,25
2019-05-03T12:50:19.825Z,36
2019-05-03T12:55:26.138Z,23
2019-05-03T13:00:31.861Z,29
2019-05-03T13:05:37.227Z,29
2019-05-03T13:10:45.188Z,84
2019-05-03T13:15:50.335Z,19
2019-05-03T13:20:57.460Z,16
2019-05-03T13:26:05.503Z,10
2019-05-03T13:31:11.355Z,10
2019-05-03T13:36:17.113Z,13
2019-05-03T13:41:22.304Z,21
2019-05-03T13:46:29.554Z,28
2019-05-03T13:51:36.898Z,94
2019-05-03T13:56:42.611Z,79
2019-05-03T14:01:47.767Z,68
2019-05-03T14:06:55.100Z,72
2019-05-03T14:12:00.146Z,78
2019-05-03T14:17:07.149Z,66
2019-05-03T14:22:12.594Z,50
2019-05-03T14:27:20.577Z,20
2019-05-03T14:32:30.307Z,32
2019-05-03T14:37:39.535Z,81
2019-05-03T14:42:46.616Z,22
2019-05-03T14:47:52.124Z,45
2019-05-03T14:53:01.927Z,27
2019-05-03T14:58:09.542Z,21
2019-05-03T15:03:16.626Z,28
2019-05-03T15:08:20.960Z,42
2019-05-03T15:13:26.430Z,30
2019-05-03T15:18:31.968Z,28
2019-05-03T15:23:39.042Z,25
2019-05-03T15:28:46.384Z,40
2019-05-03T15:33:51.560Z,53
2019-05-03T15:38:57.003Z,17
2019-05-03T15:44:02.450Z,16
2019-05-03T15:49:09.847Z,18
2019-05-03T15:54:16.856Z,14
2019-05-03T15:59:22.014Z,15
2019-05-03T16:04:28.915Z,15
2019-05-03T16:09:35.746Z,22
2019-05-03T16:14:41.190Z,20
2019-05-03T16:19:49.468Z,16
2019-05-03T16:24:56.841Z,13
2019-05-03T16:30:04.423Z,10
2019-05-03T16:35:09.466Z,7
2019-05-03T16:40:17.990Z,5
2019-05-03T16:45:22.864Z,8
2019-05-03T16:50:30.116Z,8
2019-05-03T16:55:36.769Z,4
2019-05-03T17:00:41.933Z,5
2019-05-03T17:05:49.283Z,5
2019-05-03T17:10:58.294Z,4
2019-05-03T17:16:06.810Z,5
2019-05-03T17:21:12.140Z,6
2019-05-03T17:26:20.742Z,5
2019-05-03T17:31:26.251Z,3
2019-05-03T17:36:31.679Z,2
2019-05-03T17:41:38.383Z,1
2019-05-03T17:46:45.814Z,4
2019-05-03T17:51:50.954Z,8
2019-05-03T17:56:57.056Z,4
2019-05-03T18:02:07.454Z,4
2019-05-03T18:07:12.588Z,3
2019-05-03T18:12:19.921Z,2
2019-05-03T18:17:26.660Z,1
2019-05-03T18:22:32.068Z,0
2019-05-03T18:27:37.768Z,1
2019-05-03T18:32:45.159Z,1
2019-05-03T18:37:49.884Z,0
2019-05-03T18:42:56.758Z,0
2019-05-03T18:48:01.944Z,0
2019-05-03T18:53:09.092Z,0
2019-05-03T18:58:16.394Z,0
2019-05-03T19:03:22.105Z,0
2019-05-03T19:08:29.081Z,0
2019-05-03T19:13:34.500Z,0
2019-05-03T19:18:39.907Z,0
2019-05-03T19:23:46.440Z,0
2019-05-03T19:28:51.567Z,0
2019-05-03T19:33:56.776Z,0
2019-05-03T19:39:02.464Z,0
2019-05-03T19:44:08.965Z,0
2019-05-03T19:49:14.399Z,0
2019-05-03T19:54:19.255Z,0
2019-05-03T19:59:26.604Z,0
2019-05-03T20:04:31.456Z,0
2019-05-03T20:09:36.575Z,0
2019-05-03T20:14:41.156Z,0
2019-05-03T20:19:46.763Z,0
2019-05-03T20:24:52.210Z,0
2019-05-03T20:29:59.460Z,0
2019-05-03T20:35:20.648Z,0
2019-05-03T20:40:27.224Z,0
2019-05-03T20:45:32.095Z,0
2019-05-03T20:50:39.014Z,0
2019-05-03T20:55:45.686Z,0
2019-05-03T21:00:50.630Z,0
2019-05-03T21:05:56.867Z,0
2019-05-03T21:11:01.709Z,0
2019-05-03T21:16:07.396Z,0
2019-05-03T21:21:12.522Z,0
2019-05-03T21:26:18.602Z,0
2019-05-03T21:31:25.136Z,0
2019-05-03T21:36:30.542Z,0
2019-05-03T21:41:39.288Z,0
2019-05-03T21:46:46.806Z,0
2019-05-03T21:51:54.775Z,0
2019-05-03T21:57:00.453Z,0
2019-05-03T22:02:06.720Z,0
2019-05-03T22:07:11.559Z,0
2019-05-03T22:12:16.963Z,0
2019-05-03T22:17:26.188Z,0
2019-05-03T22:22:31.020Z,0
2019-05-03T22:27:38.623Z,0
2019-05-03T22:32:45.690Z,0
2019-05-03T22:37:50.807Z,0
2019-05-03T22:42:55.375Z,0
2019-05-03T22:48:00.762Z,0
2019-05-03T22:53:07.451Z,0
2019-05-03T22:58:12.851Z,0
2019-05-03T23:03:19.849Z,0
2019-05-03T23:08:27.097Z,0
2019-05-03T23:13:32.209Z,0
2019-05-03T23:18:37.318Z,0
2019-05-03T23:23:42.435Z,0
2019-05-03T23:28:49.123Z,0
2019-05-03T23:33:56.038Z,0
2019-05-03T23:39:01.422Z,0
2019-05-03T23:44:06.535Z,0
2019-05-03T23:49:14.054Z,0
2019-05-03T23:54:19.356Z,0
2019-05-03T23:59:25.030Z,0
